createdAt,value
2023-03-07T00:01:05.098Z,3.55
2023-03-07T00:03:32.802Z,3.42
2023-03-07T00:06:06.025Z,4.22
2023-03-07T00:08:33.919Z,3.17
2023-03-07T00:11:03.182Z,3.10
2023-03-07T00:13:31.950Z,2.88
2023-03-07T00:16:00.167Z,3.08
2023-03-07T00:18:27.497Z,3.20
2023-03-07T00:21:05.713Z,2.90
2023-03-07T00:23:33.787Z,3.10
2023-03-07T00:26:05.329Z,3.30
2023-03-07T00:28:32.871Z,3.05
2023-03-07T00:31:02.453Z,2.85
2023-03-07T00:33:29.880Z,2.88
2023-03-07T00:35:59.468Z,2.97
2023-03-07T00:38:28.600Z,2.50
2023-03-07T00:41:11.546Z,3.10
2023-03-07T00:43:39.813Z,3.08
2023-03-07T00:46:07.678Z,2.90
2023-03-07T00:48:37.441Z,2.58
2023-03-07T00:51:06.963Z,2.60
2023-03-07T00:53:35.292Z,2.85
2023-03-07T00:56:07.695Z,2.45
2023-03-07T00:58:36.366Z,2.60
2023-03-07T01:01:06.200Z,2.47
2023-03-07T01:03:34.391Z,2.40
2023-03-07T01:06:06.430Z,2.28
2023-03-07T01:08:34.401Z,2.55
2023-03-07T01:11:04.261Z,2.40
2023-03-07T01:13:34.008Z,2.10
2023-03-07T01:16:15.479Z,2.47
2023-03-07T01:18:43.779Z,2.17
2023-03-07T01:21:19.625Z,2.28
2023-03-07T01:23:47.167Z,2.17
2023-03-07T01:26:26.257Z,2.22
2023-03-07T01:28:55.787Z,2.00
2023-03-07T01:31:24.037Z,2.30
2023-03-07T01:33:53.541Z,2.08
2023-03-07T01:36:30.379Z,2.28
2023-03-07T01:39:06.764Z,1.90
2023-03-07T01:41:38.031Z,1.90
2023-03-07T01:44:20.143Z,2.00
2023-03-07T01:46:55.523Z,2.30
2023-03-07T01:49:25.875Z,1.83
2023-03-07T01:52:01.411Z,1.90
2023-03-07T01:54:32.770Z,2.10
2023-03-07T01:57:01.861Z,2.30
2023-03-07T01:59:34.333Z,2.05
2023-03-07T02:02:07.663Z,1.90
2023-03-07T02:05:10.154Z,2.05
2023-03-07T02:07:49.303Z,2.20
2023-03-07T02:10:18.943Z,1.80
2023-03-07T02:12:46.253Z,1.95
2023-03-07T02:15:14.701Z,2.00
2023-03-07T02:17:43.842Z,2.05
2023-03-07T02:20:23.225Z,1.77
2023-03-07T02:22:50.946Z,1.92
2023-03-07T02:25:44.776Z,1.80
2023-03-07T02:28:15.975Z,1.90
2023-03-07T02:31:04.570Z,1.90
2023-03-07T02:33:31.989Z,2.10
2023-03-07T02:36:06.751Z,2.05
2023-03-07T02:38:38.029Z,1.95
2023-03-07T02:41:05.829Z,2.03
2023-03-07T02:43:33.492Z,2.10
2023-03-07T02:46:00.709Z,1.90
2023-03-07T02:48:28.020Z,2.00
2023-03-07T02:50:55.290Z,1.73
2023-03-07T02:53:22.613Z,2.22
2023-03-07T02:55:49.830Z,1.90
2023-03-07T02:58:17.333Z,1.80
2023-03-07T03:00:44.699Z,1.80
2023-03-07T03:03:12.084Z,2.00
2023-03-07T03:05:39.342Z,1.65
2023-03-07T03:08:06.660Z,1.80
2023-03-07T03:10:33.937Z,1.92
2023-03-07T03:13:01.391Z,1.73
2023-03-07T03:15:28.709Z,1.73
2023-03-07T03:17:56.128Z,1.70
2023-03-07T03:20:25.347Z,1.92
2023-03-07T03:22:53.101Z,1.80
2023-03-07T03:25:23.204Z,1.80
2023-03-07T03:27:50.877Z,1.67
2023-03-07T03:30:18.492Z,1.77
2023-03-07T03:32:47.127Z,1.77
2023-03-07T03:35:14.776Z,1.80
2023-03-07T03:37:41.987Z,2.10
2023-03-07T03:40:14.756Z,1.70
2023-03-07T03:42:44.090Z,1.80
2023-03-07T03:45:12.490Z,1.92
2023-03-07T03:47:39.720Z,1.80
2023-03-07T03:50:07.385Z,2.10
2023-03-07T03:52:36.525Z,2.00
2023-03-07T03:55:04.392Z,2.08
2023-03-07T03:57:31.794Z,2.00
2023-03-07T03:59:59.028Z,1.63
2023-03-07T04:02:26.934Z,2.00
2023-03-07T04:04:54.285Z,1.70
2023-03-07T04:07:22.256Z,2.00
2023-03-07T04:09:49.563Z,1.80
2023-03-07T04:12:16.798Z,1.92
2023-03-07T04:14:44.081Z,1.80
2023-03-07T04:17:11.437Z,1.77
2023-03-07T04:19:38.649Z,2.30
2023-03-07T04:22:05.941Z,1.80
2023-03-07T04:24:33.191Z,1.80
2023-03-07T04:27:00.511Z,2.10
2023-03-07T04:29:27.836Z,1.83
2023-03-07T04:31:55.059Z,1.90
2023-03-07T04:34:22.332Z,1.92
2023-03-07T04:36:49.536Z,1.85
2023-03-07T04:39:16.967Z,1.85
2023-03-07T04:41:44.247Z,1.85
2023-03-07T04:44:11.522Z,1.70
2023-03-07T04:46:39.462Z,1.95
2023-03-07T04:49:06.740Z,1.75
2023-03-07T04:51:34.052Z,2.08
2023-03-07T04:54:01.482Z,1.85
2023-03-07T04:56:28.705Z,1.80
2023-03-07T04:58:55.979Z,1.80
2023-03-07T05:01:24.001Z,2.08
2023-03-07T05:03:51.300Z,1.70
2023-03-07T05:06:18.534Z,1.60
2023-03-07T05:08:45.813Z,1.70
2023-03-07T05:11:13.070Z,1.40
2023-03-07T05:13:40.403Z,1.70
2023-03-07T05:16:08.083Z,1.30
2023-03-07T05:18:35.380Z,1.63
2023-03-07T05:21:02.665Z,1.30
2023-03-07T05:23:29.927Z,1.52
2023-03-07T05:25:57.285Z,1.40
2023-03-07T05:28:24.564Z,1.50
2023-03-07T05:30:52.886Z,1.30
2023-03-07T05:33:20.271Z,1.33
2023-03-07T05:35:48.196Z,1.70
2023-03-07T05:38:15.570Z,1.25
2023-03-07T05:40:42.879Z,1.30
2023-03-07T05:43:10.144Z,1.30
2023-03-07T05:45:37.606Z,1.35
2023-03-07T05:48:05.019Z,1.17
2023-03-07T05:50:32.308Z,1.10
2023-03-07T05:52:59.640Z,1.02
2023-03-07T05:55:26.961Z,0.90
2023-03-07T05:57:54.233Z,1.00
2023-03-07T06:00:22.061Z,1.05
2023-03-07T06:02:49.349Z,1.10
2023-03-07T06:05:16.801Z,0.90
2023-03-07T06:07:44.269Z,1.05
2023-03-07T06:10:14.674Z,1.00
2023-03-07T06:12:41.925Z,0.93
2023-03-07T06:15:09.721Z,0.88
2023-03-07T06:17:37.839Z,1.00
2023-03-07T06:20:06.072Z,0.75
2023-03-07T06:22:34.648Z,0.95
2023-03-07T06:25:01.874Z,0.80
2023-03-07T06:27:32.227Z,1.13
2023-03-07T06:29:59.510Z,1.00
2023-03-07T06:32:27.000Z,1.05
2023-03-07T06:34:54.247Z,0.90
2023-03-07T06:37:21.457Z,0.95
2023-03-07T06:39:48.756Z,0.95
2023-03-07T06:42:16.056Z,0.80
2023-03-07T06:44:44.025Z,1.02
2023-03-07T06:47:11.308Z,0.93
2023-03-07T06:49:38.546Z,0.90
2023-03-07T06:52:05.960Z,0.73
2023-03-07T06:54:33.301Z,0.70
2023-03-07T06:57:00.543Z,0.73
2023-03-07T06:59:27.769Z,0.70
2023-03-07T07:01:55.180Z,0.70
2023-03-07T07:04:22.622Z,0.95
2023-03-07T07:06:49.881Z,0.90
2023-03-07T07:09:17.233Z,0.90
2023-03-07T07:11:44.545Z,0.80
2023-03-07T07:14:11.935Z,1.00
2023-03-07T07:16:39.518Z,0.90
2023-03-07T07:19:06.835Z,0.82
2023-03-07T07:21:34.082Z,0.85
2023-03-07T07:24:01.312Z,0.80
2023-03-07T07:26:28.644Z,0.85
2023-03-07T07:28:55.854Z,0.95
2023-03-07T07:31:23.140Z,1.50
2023-03-07T07:33:50.488Z,1.00
2023-03-07T07:36:17.733Z,1.10
2023-03-07T07:38:45.058Z,1.20
2023-03-07T07:41:12.369Z,1.23
2023-03-07T07:43:39.743Z,1.77
2023-03-07T07:46:07.391Z,1.55
2023-03-07T07:48:34.726Z,1.63
2023-03-07T07:51:05.829Z,1.80
2023-03-07T07:53:33.526Z,1.50
2023-03-07T07:56:00.767Z,2.08
2023-03-07T07:58:28.005Z,1.75
2023-03-07T08:00:55.254Z,1.73
2023-03-07T08:03:22.495Z,1.60
2023-03-07T08:05:49.942Z,1.50
2023-03-07T08:08:18.380Z,1.55
2023-03-07T08:10:49.349Z,1.55
2023-03-07T08:13:17.914Z,1.50
2023-03-07T08:15:45.257Z,1.52
2023-03-07T08:18:12.810Z,1.50
2023-03-07T08:20:41.371Z,1.30
2023-03-07T08:23:08.953Z,1.38
2023-03-07T08:25:36.871Z,1.55
2023-03-07T08:28:05.446Z,1.63
2023-03-07T08:30:34.342Z,1.23
2023-03-07T08:33:01.653Z,1.20
2023-03-07T08:35:29.536Z,1.30
2023-03-07T08:37:59.772Z,1.33
2023-03-07T08:40:30.768Z,1.15
2023-03-07T08:43:00.014Z,1.60
2023-03-07T08:45:27.264Z,1.20
2023-03-07T08:47:55.688Z,1.20
2023-03-07T08:50:26.592Z,1.25
2023-03-07T08:52:53.995Z,1.20
2023-03-07T08:55:21.443Z,1.02
2023-03-07T08:57:48.739Z,0.90
2023-03-07T09:00:17.807Z,1.00
2023-03-07T09:02:45.212Z,1.10
2023-03-07T09:05:12.499Z,0.90
2023-03-07T09:07:39.812Z,1.00
2023-03-07T09:10:07.837Z,1.00
2023-03-07T09:12:36.088Z,0.90
2023-03-07T09:15:03.657Z,1.00
2023-03-07T09:17:31.076Z,0.80
2023-03-07T09:19:58.359Z,0.90
2023-03-07T09:22:27.019Z,0.73
2023-03-07T09:24:54.360Z,0.90
2023-03-07T09:27:21.692Z,0.88
2023-03-07T09:29:49.014Z,0.85
2023-03-07T09:32:16.566Z,1.00
2023-03-07T09:34:43.844Z,1.20
2023-03-07T09:37:11.247Z,0.82
2023-03-07T09:39:38.966Z,0.80
2023-03-07T09:42:22.945Z,0.77
2023-03-07T09:45:11.767Z,0.70
2023-03-07T09:47:44.658Z,0.80
2023-03-07T09:50:27.762Z,1.10
2023-03-07T09:53:02.783Z,0.80
2023-03-07T09:55:32.219Z,0.90
2023-03-07T09:58:06.696Z,0.85
2023-03-07T10:00:36.440Z,0.85
2023-03-07T10:03:33.445Z,0.80
2023-03-07T10:06:14.657Z,0.85
2023-03-07T10:08:42.020Z,0.70
2023-03-07T10:11:26.562Z,0.93
2023-03-07T10:14:13.115Z,0.82
2023-03-07T10:17:21.475Z,0.70
2023-03-07T10:20:08.292Z,0.80
2023-03-07T10:23:07.986Z,0.70
2023-03-07T10:25:45.889Z,0.77
2023-03-07T10:28:22.799Z,0.63
2023-03-07T10:30:54.460Z,0.77
2023-03-07T10:33:21.742Z,0.80
2023-03-07T10:36:09.184Z,0.73
2023-03-07T10:38:45.816Z,0.80
2023-03-07T10:41:17.400Z,0.80
2023-03-07T10:43:45.950Z,0.68
2023-03-07T10:46:30.729Z,0.73
2023-03-07T10:49:16.886Z,0.80
2023-03-07T10:52:00.431Z,0.70
2023-03-07T10:54:35.578Z,0.60
2023-03-07T10:57:12.773Z,0.73
2023-03-07T10:59:48.734Z,0.70
2023-03-07T11:02:36.681Z,0.85
2023-03-07T11:05:20.382Z,0.60
2023-03-07T11:07:47.591Z,0.52
2023-03-07T11:10:25.923Z,0.70
2023-03-07T11:12:55.691Z,0.70
2023-03-07T11:15:24.819Z,0.75
2023-03-07T11:17:52.899Z,0.88
2023-03-07T11:20:30.500Z,0.60
2023-03-07T11:23:16.862Z,0.50
2023-03-07T11:25:44.286Z,0.75
2023-03-07T11:28:35.720Z,0.70
2023-03-07T11:31:20.959Z,0.60
2023-03-07T11:34:15.187Z,0.70
2023-03-07T11:36:50.701Z,0.82
2023-03-07T11:39:42.624Z,0.70
2023-03-07T11:42:23.909Z,0.70
2023-03-07T11:45:09.215Z,0.60
2023-03-07T11:48:08.004Z,0.60
2023-03-07T11:50:35.832Z,0.60
2023-03-07T11:53:21.521Z,0.60
2023-03-07T11:56:14.674Z,0.60
2023-03-07T11:59:20.801Z,0.80
2023-03-07T12:01:58.521Z,0.60
2023-03-07T12:04:57.939Z,0.60
2023-03-07T12:07:58.364Z,0.50
2023-03-07T12:10:50.861Z,0.60
2023-03-07T12:13:33.000Z,0.50
2023-03-07T12:16:13.350Z,0.50
2023-03-07T12:18:49.125Z,0.70
2023-03-07T12:21:31.347Z,0.50
2023-03-07T12:24:08.252Z,0.50
2023-03-07T12:26:40.565Z,0.52
2023-03-07T12:29:27.809Z,0.60
2023-03-07T12:31:59.342Z,0.57
2023-03-07T12:34:34.417Z,0.65
2023-03-07T12:37:18.103Z,0.50
2023-03-07T12:39:54.349Z,0.47
2023-03-07T12:42:38.892Z,0.60
2023-03-07T12:45:12.825Z,0.50
2023-03-07T12:47:56.945Z,0.40
2023-03-07T12:50:57.687Z,0.50
2023-03-07T12:53:43.726Z,0.40
2023-03-07T12:56:27.686Z,0.50
2023-03-07T12:59:10.108Z,0.70
2023-03-07T13:01:47.666Z,0.43
2023-03-07T13:04:37.058Z,0.50
2023-03-07T13:07:09.355Z,0.40
2023-03-07T13:09:40.984Z,0.50
2023-03-07T13:12:16.095Z,0.40
2023-03-07T13:15:06.511Z,0.40
2023-03-07T13:17:33.773Z,0.50
2023-03-07T13:20:18.941Z,0.63
2023-03-07T13:22:46.160Z,0.68
2023-03-07T13:25:36.083Z,0.70
2023-03-07T13:28:06.210Z,0.75
2023-03-07T13:30:35.238Z,0.60
2023-03-07T13:33:26.872Z,0.80
2023-03-07T13:35:59.281Z,0.70
2023-03-07T13:38:44.588Z,0.60
2023-03-07T13:41:13.588Z,0.80
2023-03-07T13:43:46.776Z,0.73
2023-03-07T13:46:30.958Z,0.77
2023-03-07T13:48:59.230Z,0.60
2023-03-07T13:51:29.838Z,0.70
2023-03-07T13:54:05.412Z,0.60
2023-03-07T13:56:40.892Z,0.60
2023-03-07T13:59:13.735Z,0.60
2023-03-07T14:01:58.588Z,0.60
2023-03-07T14:04:39.575Z,0.60
2023-03-07T14:07:36.668Z,0.52
2023-03-07T14:10:21.515Z,0.60
2023-03-07T14:13:23.088Z,0.60
2023-03-07T14:16:17.451Z,0.50
2023-03-07T14:18:50.612Z,0.40
2023-03-07T14:21:41.501Z,0.60
2023-03-07T14:24:31.471Z,0.63
2023-03-07T14:27:03.479Z,0.65
2023-03-07T14:29:31.012Z,0.50
2023-03-07T14:32:00.856Z,0.43
2023-03-07T14:34:35.973Z,0.47
2023-03-07T14:37:26.480Z,0.95
2023-03-07T14:39:59.918Z,0.75
2023-03-07T14:43:03.151Z,0.63
2023-03-07T14:45:38.710Z,0.75
2023-03-07T14:48:05.930Z,0.50
2023-03-07T14:50:34.234Z,0.55
2023-03-07T14:53:15.595Z,0.45
2023-03-07T14:55:46.208Z,0.70
2023-03-07T14:58:22.297Z,0.63
2023-03-07T15:01:11.279Z,0.70
2023-03-07T15:03:54.981Z,0.63
2023-03-07T15:06:25.666Z,0.60
2023-03-07T15:08:55.629Z,0.70
2023-03-07T15:11:42.912Z,0.60
2023-03-07T15:14:34.263Z,0.60
2023-03-07T15:17:08.332Z,0.70
2023-03-07T15:20:02.074Z,0.90
2023-03-07T15:22:39.605Z,0.68
2023-03-07T15:25:23.996Z,0.60
2023-03-07T15:28:15.688Z,0.60
2023-03-07T15:30:48.973Z,0.70
2023-03-07T15:33:28.918Z,0.73
2023-03-07T15:36:14.587Z,0.82
2023-03-07T15:38:48.441Z,0.60
2023-03-07T15:41:25.322Z,0.60
2023-03-07T15:44:18.874Z,0.90
2023-03-07T15:46:50.064Z,0.60
2023-03-07T15:49:40.685Z,0.65
2023-03-07T15:52:20.280Z,0.60
2023-03-07T15:54:51.657Z,0.70
2023-03-07T15:57:40.639Z,0.93
2023-03-07T16:00:20.557Z,0.90
2023-03-07T16:02:51.727Z,0.60
2023-03-07T16:05:23.042Z,0.80
2023-03-07T16:07:55.670Z,0.90
2023-03-07T16:10:30.333Z,0.87
2023-03-07T16:12:59.611Z,0.80
2023-03-07T16:15:27.453Z,0.80
2023-03-07T16:17:56.490Z,1.20
2023-03-07T16:20:26.730Z,1.10
2023-03-07T16:22:54.608Z,1.02
2023-03-07T16:25:24.182Z,1.33
2023-03-07T16:27:54.274Z,1.30
2023-03-07T16:30:25.088Z,1.27
2023-03-07T16:32:52.479Z,1.30
2023-03-07T16:35:28.101Z,1.40
2023-03-07T16:37:56.052Z,1.60
2023-03-07T16:40:25.952Z,1.63
2023-03-07T16:42:53.847Z,1.60
2023-03-07T16:45:27.998Z,1.50
2023-03-07T16:47:57.873Z,1.60
2023-03-07T16:50:31.745Z,1.98
2023-03-07T16:52:59.409Z,2.05
2023-03-07T16:55:26.861Z,2.10
2023-03-07T16:58:00.142Z,2.50
2023-03-07T17:00:28.431Z,2.30
2023-03-07T17:03:00.106Z,2.40
2023-03-07T17:05:29.031Z,2.50
2023-03-07T17:07:57.927Z,2.60
2023-03-07T17:10:26.875Z,2.45
2023-03-07T17:12:56.608Z,3.30
2023-03-07T17:15:30.427Z,2.95
2023-03-07T17:17:59.528Z,3.00
2023-03-07T17:20:27.624Z,3.20
2023-03-07T17:22:55.183Z,3.35
2023-03-07T17:25:23.306Z,3.25
2023-03-07T17:28:01.172Z,3.60
2023-03-07T17:30:29.939Z,3.55
2023-03-07T17:32:58.208Z,3.50
2023-03-07T17:35:25.687Z,3.53
2023-03-07T17:37:53.847Z,3.30
2023-03-07T17:40:22.537Z,4.15
2023-03-07T17:42:54.798Z,3.20
2023-03-07T17:45:22.312Z,3.63
2023-03-07T17:47:54.150Z,3.75
2023-03-07T17:50:24.715Z,3.72
2023-03-07T17:52:53.828Z,3.47
2023-03-07T17:55:24.122Z,3.58
2023-03-07T17:57:52.230Z,4.15
2023-03-07T18:00:20.949Z,3.50
2023-03-07T18:02:48.507Z,3.72
2023-03-07T18:05:15.930Z,3.92
2023-03-07T18:07:43.236Z,3.75
2023-03-07T18:10:12.626Z,3.97
2023-03-07T18:12:40.043Z,3.88
2023-03-07T18:15:12.956Z,3.90
2023-03-07T18:17:47.698Z,4.50
2023-03-07T18:20:17.397Z,4.20
2023-03-07T18:22:44.769Z,4.75
2023-03-07T18:25:15.584Z,5.38
2023-03-07T18:27:43.219Z,6.07
2023-03-07T18:30:11.943Z,6.15
2023-03-07T18:32:39.464Z,6.30
2023-03-07T18:35:07.836Z,7.60
2023-03-07T18:37:35.155Z,7.90
2023-03-07T18:40:02.756Z,8.63
2023-03-07T18:42:33.649Z,8.35
2023-03-07T18:45:01.056Z,8.90
2023-03-07T18:47:28.427Z,9.27
2023-03-07T18:49:57.615Z,10.20
2023-03-07T18:52:24.870Z,10.40
2023-03-07T18:54:52.083Z,10.95
2023-03-07T18:57:19.311Z,11.65
2023-03-07T18:59:46.637Z,10.85
2023-03-07T19:02:13.997Z,11.15
2023-03-07T19:04:41.332Z,11.23
2023-03-07T19:07:08.570Z,11.35
2023-03-07T19:09:35.837Z,11.32
2023-03-07T19:12:03.212Z,11.65
2023-03-07T19:14:33.121Z,10.73
2023-03-07T19:17:00.407Z,10.77
2023-03-07T19:19:27.860Z,10.75
2023-03-07T19:21:55.155Z,10.10
2023-03-07T19:24:22.395Z,11.27
2023-03-07T19:26:49.840Z,11.23
2023-03-07T19:29:17.094Z,10.65
2023-03-07T19:31:44.762Z,6.65
2023-03-07T19:34:12.225Z,8.18
2023-03-07T19:36:41.587Z,9.73
2023-03-07T19:39:09.640Z,9.65
2023-03-07T19:41:40.808Z,9.25
2023-03-07T19:44:12.131Z,8.95
2023-03-07T19:46:42.916Z,9.68
2023-03-07T19:49:10.176Z,9.90
2023-03-07T19:51:37.417Z,9.32
2023-03-07T19:54:04.796Z,9.55
2023-03-07T19:56:32.877Z,9.55
2023-03-07T19:59:02.464Z,9.35
2023-03-07T20:01:30.222Z,9.30
2023-03-07T20:03:57.618Z,8.55
2023-03-07T20:06:27.379Z,10.00
2023-03-07T20:08:55.651Z,8.88
2023-03-07T20:11:27.169Z,9.45
2023-03-07T20:13:56.346Z,9.45
2023-03-07T20:16:24.559Z,8.75
2023-03-07T20:18:53.720Z,9.95
2023-03-07T20:21:25.660Z,8.48
2023-03-07T20:23:56.325Z,8.63
2023-03-07T20:26:29.652Z,8.77
2023-03-07T20:28:57.553Z,8.43
2023-03-07T20:31:25.594Z,8.55
2023-03-07T20:33:53.104Z,8.63
2023-03-07T20:36:27.692Z,8.18
2023-03-07T20:38:57.829Z,8.20
2023-03-07T20:41:30.381Z,8.32
2023-03-07T20:44:04.104Z,8.07
2023-03-07T20:46:32.672Z,7.30
2023-03-07T20:49:01.802Z,8.30
2023-03-07T20:51:31.547Z,8.48
2023-03-07T20:54:01.536Z,7.90
2023-03-07T20:56:31.263Z,7.88
2023-03-07T20:58:59.889Z,8.05
2023-03-07T21:01:29.555Z,7.30
2023-03-07T21:03:59.405Z,7.40
2023-03-07T21:06:26.890Z,7.95
2023-03-07T21:08:54.250Z,6.53
2023-03-07T21:11:21.732Z,7.13
2023-03-07T21:13:50.049Z,7.30
2023-03-07T21:16:20.184Z,6.72
2023-03-07T21:18:48.310Z,6.93
2023-03-07T21:21:17.836Z,6.78
2023-03-07T21:23:45.980Z,7.15
2023-03-07T21:26:21.707Z,6.97
2023-03-07T21:28:52.915Z,7.35
2023-03-07T21:31:25.433Z,6.78
2023-03-07T21:33:55.181Z,7.40
2023-03-07T21:36:23.697Z,6.75
2023-03-07T21:38:50.970Z,6.72
2023-03-07T21:41:19.236Z,6.65
2023-03-07T21:43:46.539Z,6.97
2023-03-07T21:46:15.027Z,7.18
2023-03-07T21:48:42.744Z,6.15
2023-03-07T21:51:10.271Z,6.57
2023-03-07T21:53:37.912Z,6.95
2023-03-07T21:56:11.034Z,6.55
2023-03-07T21:58:39.436Z,6.28
2023-03-07T22:01:14.903Z,6.28
2023-03-07T22:03:42.860Z,6.57
2023-03-07T22:06:13.055Z,7.07
2023-03-07T22:08:41.255Z,5.90
2023-03-07T22:11:09.963Z,6.10
2023-03-07T22:13:39.456Z,6.18
2023-03-07T22:16:11.255Z,6.32
2023-03-07T22:18:38.807Z,6.18
2023-03-07T22:21:14.054Z,6.15
2023-03-07T22:23:42.176Z,6.30
2023-03-07T22:26:11.217Z,6.38
2023-03-07T22:28:40.535Z,5.85
2023-03-07T22:31:11.242Z,5.97
2023-03-07T22:33:39.689Z,5.78
2023-03-07T22:36:08.698Z,6.55
2023-03-07T22:38:35.964Z,6.30
2023-03-07T22:41:05.951Z,6.30
2023-03-07T22:43:34.796Z,5.88
2023-03-07T22:46:02.462Z,6.22
2023-03-07T22:48:30.268Z,6.38
2023-03-07T22:50:58.393Z,6.55
2023-03-07T22:53:30.818Z,6.00
2023-03-07T22:55:59.345Z,6.68
2023-03-07T22:58:27.911Z,6.28
2023-03-07T23:00:55.239Z,6.50
2023-03-07T23:03:23.426Z,6.53
2023-03-07T23:05:50.999Z,6.35
2023-03-07T23:08:18.460Z,6.60
2023-03-07T23:10:45.784Z,6.53
2023-03-07T23:13:13.029Z,5.95
2023-03-07T23:15:41.492Z,6.60
2023-03-07T23:18:09.183Z,6.75
2023-03-07T23:20:39.463Z,5.97
2023-03-07T23:23:07.042Z,6.47
2023-03-07T23:25:34.351Z,6.20
2023-03-07T23:28:01.763Z,6.03
2023-03-07T23:30:29.048Z,6.13
2023-03-07T23:32:56.693Z,6.15
2023-03-07T23:35:24.509Z,6.00
2023-03-07T23:37:51.795Z,5.72
2023-03-07T23:40:19.336Z,5.78
2023-03-07T23:42:46.711Z,5.43
2023-03-07T23:45:13.925Z,5.88
2023-03-07T23:47:41.210Z,5.45
2023-03-07T23:50:10.080Z,5.45
2023-03-07T23:52:37.428Z,5.75
2023-03-07T23:55:09.057Z,5.43
2023-03-07T23:57:40.707Z,5.35
